sensor_id;sensor_type;location;lat;lon;timestamp;temperature;humidity
10231;DHT22;62604;49.432;8.680;2024-03-08T07:08:27;4.20;99.90
10231;DHT22;62604;49.432;8.680;2024-03-08T07:10:54;4.50;99.90
10231;DHT22;62604;49.432;8.680;2024-03-08T07:13:22;5.10;99.90
10231;DHT22;62604;49.432;8.680;2024-03-08T07:15:49;5.70;99.90
10231;DHT22;62604;49.432;8.680;2024-03-08T07:18:17;6.30;99.90
10231;DHT22;62604;49.432;8.680;2024-03-08T07:20:44;6.90;99.90
10231;DHT22;62604;49.432;8.680;2024-03-08T07:23:12;7.20;99.90
10231;DHT22;62604;49.432;8.680;2024-03-08T07:26:00;7.10;99.90
10231;DHT22;62604;49.432;8.680;2024-03-08T07:28:27;7.50;99.90
10231;DHT22;62604;49.432;8.680;2024-03-08T07:30:56;7.80;99.90
10231;DHT22;62604;49.432;8.680;2024-03-08T07:33:35;7.70;99.90
10231;DHT22;62604;49.432;8.680;2024-03-08T07:36:04;7.70;99.90
10231;DHT22;62604;49.432;8.680;2024-03-08T07:38:31;7.90;99.90
10231;DHT22;62604;49.432;8.680;2024-03-08T07:41:00;7.60;99.90
10231;DHT22;62604;49.432;8.680;2024-03-08T07:43:27;7.30;99.90
10231;DHT22;62604;49.432;8.680;2024-03-08T07:45:54;7.70;99.90
10231;DHT22;62604;49.432;8.680;2024-03-08T07:48:21;7.80;99.90
10231;DHT22;62604;49.432;8.680;2024-03-08T07:50:48;7.70;99.90
10231;DHT22;62604;49.432;8.680;2024-03-08T07:53:15;7.70;99.90
10231;DHT22;62604;49.432;8.680;2024-03-08T07:55:42;7.20;99.90
10231;DHT22;62604;49.432;8.680;2024-03-08T07:58:11;7.40;99.90
10231;DHT22;62604;49.432;8.680;2024-03-08T08:00:39;7.70;99.90
10231;DHT22;62604;49.432;8.680;2024-03-08T08:03:08;7.60;99.90
10231;DHT22;62604;49.432;8.680;2024-03-08T08:05:35;7.70;99.90
10231;DHT22;62604;49.432;8.680;2024-03-08T08:08:04;8.10;99.90
10231;DHT22;62604;49.432;8.680;2024-03-08T08:10:33;8.60;99.90
10231;DHT22;62604;49.432;8.680;2024-03-08T08:13:00;8.60;99.90
10231;DHT22;62604;49.432;8.680;2024-03-08T08:15:28;9.00;99.90
10231;DHT22;62604;49.432;8.680;2024-03-08T08:17:55;9.10;99.90
10231;DHT22;62604;49.432;8.680;2024-03-08T08:20:22;9.20;99.90
10231;DHT22;62604;49.432;8.680;2024-03-08T08:22:49;9.30;99.90
10231;DHT22;62604;49.432;8.680;2024-03-08T08:25:16;9.70;99.90
10231;DHT22;62604;49.432;8.680;2024-03-08T08:27:45;10.20;99.90
10231;DHT22;62604;49.432;8.680;2024-03-08T08:30:13;9.90;99.90
10231;DHT22;62604;49.432;8.680;2024-03-08T08:32:41;10.10;99.90
10231;DHT22;62604;49.432;8.680;2024-03-08T08:35:09;10.30;99.90
10231;DHT22;62604;49.432;8.680;2024-03-08T08:37:38;10.20;99.90
10231;DHT22;62604;49.432;8.680;2024-03-08T08:40:06;10.40;99.90
10231;DHT22;62604;49.432;8.680;2024-03-08T08:42:36;10.50;99.90
10231;DHT22;62604;49.432;8.680;2024-03-08T08:45:04;10.40;99.90
10231;DHT22;62604;49.432;8.680;2024-03-08T08:47:34;10.70;99.90
10231;DHT22;62604;49.432;8.680;2024-03-08T08:50:02;10.90;99.90
10231;DHT22;62604;49.432;8.680;2024-03-08T08:52:30;11.20;99.90
10231;DHT22;62604;49.432;8.680;2024-03-08T08:54:57;11.30;99.90
10231;DHT22;62604;49.432;8.680;2024-03-08T08:57:24;11.20;99.90
10231;DHT22;62604;49.432;8.680;2024-03-08T08:59:52;11.30;99.90
10231;DHT22;62604;49.432;8.680;2024-03-08T09:02:20;11.40;99.90
10231;DHT22;62604;49.432;8.680;2024-03-08T09:04:48;11.30;99.90
10231;DHT22;62604;49.432;8.680;2024-03-08T09:07:17;11.20;99.90
10231;DHT22;62604;49.432;8.680;2024-03-08T09:09:45;11.30;99.90
10231;DHT22;62604;49.432;8.680;2024-03-08T09:12:12;11.10;99.90
10231;DHT22;62604;49.432;8.680;2024-03-08T09:14:39;10.60;99.90
10231;DHT22;62604;49.432;8.680;2024-03-08T09:17:06;10.50;99.90
10231;DHT22;62604;49.432;8.680;2024-03-08T09:19:34;10.40;99.90
10231;DHT22;62604;49.432;8.680;2024-03-08T09:22:02;10.20;99.90
10231;DHT22;62604;49.432;8.680;2024-03-08T09:24:31;10.30;99.90
10231;DHT22;62604;49.432;8.680;2024-03-08T09:26:58;10.20;99.90
10231;DHT22;62604;49.432;8.680;2024-03-08T09:29:25;10.30;99.90
10231;DHT22;62604;49.432;8.680;2024-03-08T09:31:52;10.50;99.90
10231;DHT22;62604;49.432;8.680;2024-03-08T09:34:19;10.50;99.90
10231;DHT22;62604;49.432;8.680;2024-03-08T09:36:46;10.50;99.90
10231;DHT22;62604;49.432;8.680;2024-03-08T09:39:13;10.50;99.90
10231;DHT22;62604;49.432;8.680;2024-03-08T09:41:43;10.70;99.90
10231;DHT22;62604;49.432;8.680;2024-03-08T09:44:13;10.60;99.90
10231;DHT22;62604;49.432;8.680;2024-03-08T09:46:40;11.00;99.90
10231;DHT22;62604;49.432;8.680;2024-03-08T09:49:07;11.30;99.90
10231;DHT22;62604;49.432;8.680;2024-03-08T09:51:38;11.60;99.90
10231;DHT22;62604;49.432;8.680;2024-03-08T09:54:06;11.90;99.90
10231;DHT22;62604;49.432;8.680;2024-03-08T09:56:35;12.00;99.90
10231;DHT22;62604;49.432;8.680;2024-03-08T09:59:03;12.00;99.90
10231;DHT22;62604;49.432;8.680;2024-03-08T10:01:58;12.20;99.90
10231;DHT22;62604;49.432;8.680;2024-03-08T10:04:25;12.70;99.90
10231;DHT22;62604;49.432;8.680;2024-03-08T10:06:54;12.80;99.90
10231;DHT22;62604;49.432;8.680;2024-03-08T10:09:22;12.90;99.90
10231;DHT22;62604;49.432;8.680;2024-03-08T10:11:50;13.10;99.90
10231;DHT22;62604;49.432;8.680;2024-03-08T10:14:21;13.10;99.90
10231;DHT22;62604;49.432;8.680;2024-03-08T10:16:48;13.00;99.90
10231;DHT22;62604;49.432;8.680;2024-03-08T10:19:15;12.40;99.90
10231;DHT22;62604;49.432;8.680;2024-03-08T10:21:52;12.30;99.90
10231;DHT22;62604;49.432;8.680;2024-03-08T10:24:19;12.40;99.90
10231;DHT22;62604;49.432;8.680;2024-03-08T10:26:46;12.70;99.90
10231;DHT22;62604;49.432;8.680;2024-03-08T10:29:13;13.00;99.90
10231;DHT22;62604;49.432;8.680;2024-03-08T10:31:45;13.30;99.90
10231;DHT22;62604;49.432;8.680;2024-03-08T10:34:12;13.60;99.90
10231;DHT22;62604;49.432;8.680;2024-03-08T10:36:39;13.80;99.90
10231;DHT22;62604;49.432;8.680;2024-03-08T10:39:11;14.20;99.90
10231;DHT22;62604;49.432;8.680;2024-03-08T10:41:52;13.90;99.90
10231;DHT22;62604;49.432;8.680;2024-03-08T10:44:32;13.70;99.90
10231;DHT22;62604;49.432;8.680;2024-03-08T10:47:08;13.50;99.90
10231;DHT22;62604;49.432;8.680;2024-03-08T10:49:55;13.40;99.90
10231;DHT22;62604;49.432;8.680;2024-03-08T10:52:24;13.30;99.90
10231;DHT22;62604;49.432;8.680;2024-03-08T10:54:52;12.80;99.90
10231;DHT22;62604;49.432;8.680;2024-03-08T10:57:22;12.60;99.90
10231;DHT22;62604;49.432;8.680;2024-03-08T10:59:51;12.60;99.90
10231;DHT22;62604;49.432;8.680;2024-03-08T11:02:19;12.60;99.90
10231;DHT22;62604;49.432;8.680;2024-03-08T11:04:47;12.90;99.90
10231;DHT22;62604;49.432;8.680;2024-03-08T11:07:16;13.10;99.90
10231;DHT22;62604;49.432;8.680;2024-03-08T11:09:47;13.50;99.90
10231;DHT22;62604;49.432;8.680;2024-03-08T11:12:22;13.70;99.90
10231;DHT22;62604;49.432;8.680;2024-03-08T11:14:51;13.60;99.90
10231;DHT22;62604;49.432;8.680;2024-03-08T11:17:44;13.60;99.90
10231;DHT22;62604;49.432;8.680;2024-03-08T11:20:12;13.80;99.90
10231;DHT22;62604;49.432;8.680;2024-03-08T11:22:48;14.10;99.90
10231;DHT22;62604;49.432;8.680;2024-03-08T11:25:36;13.30;99.90
10231;DHT22;62604;49.432;8.680;2024-03-08T11:28:13;12.90;99.90
10231;DHT22;62604;49.432;8.680;2024-03-08T11:30:44;12.90;99.90
10231;DHT22;62604;49.432;8.680;2024-03-08T11:33:15;13.10;99.90
10231;DHT22;62604;49.432;8.680;2024-03-08T11:35:43;13.20;99.90
10231;DHT22;62604;49.432;8.680;2024-03-08T11:38:12;13.60;99.90
10231;DHT22;62604;49.432;8.680;2024-03-08T11:40:40;14.00;99.90
10231;DHT22;62604;49.432;8.680;2024-03-08T11:43:08;14.50;99.90
10231;DHT22;62604;49.432;8.680;2024-03-08T11:45:36;15.00;99.90
10231;DHT22;62604;49.432;8.680;2024-03-08T11:48:04;14.90;99.90
10231;DHT22;62604;49.432;8.680;2024-03-08T11:50:33;15.00;99.90
10231;DHT22;62604;49.432;8.680;2024-03-08T11:53:01;15.00;99.90
10231;DHT22;62604;49.432;8.680;2024-03-08T11:55:29;15.20;99.90
10231;DHT22;62604;49.432;8.680;2024-03-08T11:58:02;15.10;99.90
10231;DHT22;62604;49.432;8.680;2024-03-08T12:00:30;15.20;99.90
10231;DHT22;62604;49.432;8.680;2024-03-08T12:03:04;15.40;99.90
10231;DHT22;62604;49.432;8.680;2024-03-08T12:05:33;15.60;99.90
10231;DHT22;62604;49.432;8.680;2024-03-08T12:08:01;15.30;99.90
10231;DHT22;62604;49.432;8.680;2024-03-08T12:10:30;15.20;99.90
10231;DHT22;62604;49.432;8.680;2024-03-08T12:12:58;15.30;99.90
10231;DHT22;62604;49.432;8.680;2024-03-08T12:15:26;15.60;99.90
10231;DHT22;62604;49.432;8.680;2024-03-08T12:17:53;16.00;99.90
10231;DHT22;62604;49.432;8.680;2024-03-08T12:20:23;15.90;99.90
10231;DHT22;62604;49.432;8.680;2024-03-08T12:22:53;16.20;99.90
10231;DHT22;62604;49.432;8.680;2024-03-08T12:25:22;15.50;99.90
10231;DHT22;62604;49.432;8.680;2024-03-08T12:27:49;15.60;99.90
10231;DHT22;62604;49.432;8.680;2024-03-08T12:30:22;15.70;99.90
10231;DHT22;62604;49.432;8.680;2024-03-08T12:32:54;15.70;99.90
10231;DHT22;62604;49.432;8.680;2024-03-08T12:35:23;15.70;99.90
10231;DHT22;62604;49.432;8.680;2024-03-08T12:37:53;15.80;99.90
10231;DHT22;62604;49.432;8.680;2024-03-08T12:40:26;15.90;99.90
10231;DHT22;62604;49.432;8.680;2024-03-08T12:42:54;15.70;99.90
10231;DHT22;62604;49.432;8.680;2024-03-08T12:45:22;15.70;99.90
10231;DHT22;62604;49.432;8.680;2024-03-08T12:47:50;15.90;99.90
10231;DHT22;62604;49.432;8.680;2024-03-08T12:50:17;15.70;99.90
10231;DHT22;62604;49.432;8.680;2024-03-08T12:52:45;16.10;99.90
10231;DHT22;62604;49.432;8.680;2024-03-08T12:55:13;16.40;99.90
10231;DHT22;62604;49.432;8.680;2024-03-08T12:57:42;16.40;99.90
10231;DHT22;62604;49.432;8.680;2024-03-08T13:00:10;16.60;99.90
10231;DHT22;62604;49.432;8.680;2024-03-08T13:02:39;16.10;99.90
10231;DHT22;62604;49.432;8.680;2024-03-08T13:05:08;16.10;99.90
10231;DHT22;62604;49.432;8.680;2024-03-08T13:07:36;16.00;99.90
10231;DHT22;62604;49.432;8.680;2024-03-08T13:10:04;15.80;99.90
10231;DHT22;62604;49.432;8.680;2024-03-08T13:12:34;15.70;99.90
10231;DHT22;62604;49.432;8.680;2024-03-08T13:15:04;15.50;99.90
10231;DHT22;62604;49.432;8.680;2024-03-08T13:17:32;15.50;99.90
10231;DHT22;62604;49.432;8.680;2024-03-08T13:19:59;15.20;99.90
10231;DHT22;62604;49.432;8.680;2024-03-08T13:22:26;15.00;99.90
10231;DHT22;62604;49.432;8.680;2024-03-08T13:24:53;14.30;99.90
10231;DHT22;62604;49.432;8.680;2024-03-08T13:27:20;14.30;99.90
10231;DHT22;62604;49.432;8.680;2024-03-08T13:29:52;14.20;99.90
10231;DHT22;62604;49.432;8.680;2024-03-08T13:32:19;14.20;99.90
10231;DHT22;62604;49.432;8.680;2024-03-08T13:34:47;14.10;99.90
10231;DHT22;62604;49.432;8.680;2024-03-08T13:37:17;14.00;99.90
10231;DHT22;62604;49.432;8.680;2024-03-08T13:39:45;13.80;99.90
10231;DHT22;62604;49.432;8.680;2024-03-08T13:42:12;13.70;99.90
10231;DHT22;62604;49.432;8.680;2024-03-08T13:44:44;13.60;99.90
10231;DHT22;62604;49.432;8.680;2024-03-08T13:47:13;13.40;99.90
10231;DHT22;62604;49.432;8.680;2024-03-08T13:49:40;13.20;99.90
10231;DHT22;62604;49.432;8.680;2024-03-08T13:52:09;13.20;99.90
10231;DHT22;62604;49.432;8.680;2024-03-08T13:54:38;13.00;99.90
10231;DHT22;62604;49.432;8.680;2024-03-08T13:57:05;12.90;99.90
10231;DHT22;62604;49.432;8.680;2024-03-08T13:59:32;12.90;99.90
10231;DHT22;62604;49.432;8.680;2024-03-08T14:02:01;12.80;99.90
10231;DHT22;62604;49.432;8.680;2024-03-08T14:04:29;12.80;99.90
10231;DHT22;62604;49.432;8.680;2024-03-08T14:06:57;12.70;99.90
10231;DHT22;62604;49.432;8.680;2024-03-08T14:09:29;12.60;99.90
10231;DHT22;62604;49.432;8.680;2024-03-08T14:11:57;12.50;99.90
10231;DHT22;62604;49.432;8.680;2024-03-08T14:14:24;12.40;99.90
10231;DHT22;62604;49.432;8.680;2024-03-08T14:16:51;12.40;99.90
10231;DHT22;62604;49.432;8.680;2024-03-08T14:19:21;12.40;99.90
10231;DHT22;62604;49.432;8.680;2024-03-08T14:21:50;12.40;99.90
10231;DHT22;62604;49.432;8.680;2024-03-08T14:24:19;12.30;99.90
10231;DHT22;62604;49.432;8.680;2024-03-08T14:26:46;12.30;99.90
10231;DHT22;62604;49.432;8.680;2024-03-08T14:29:14;12.30;99.90
10231;DHT22;62604;49.432;8.680;2024-03-08T14:31:41;12.30;99.90
10231;DHT22;62604;49.432;8.680;2024-03-08T14:34:08;12.40;99.90
10231;DHT22;62604;49.432;8.680;2024-03-08T14:36:36;12.40;99.90
10231;DHT22;62604;49.432;8.680;2024-03-08T14:39:05;12.40;99.90
10231;DHT22;62604;49.432;8.680;2024-03-08T14:41:33;12.50;99.90
10231;DHT22;62604;49.432;8.680;2024-03-08T14:44:00;12.60;99.90
10231;DHT22;62604;49.432;8.680;2024-03-08T14:46:27;12.70;99.90
10231;DHT22;62604;49.432;8.680;2024-03-08T14:48:55;12.80;99.90
10231;DHT22;62604;49.432;8.680;2024-03-08T14:51:22;12.80;99.90
10231;DHT22;62604;49.432;8.680;2024-03-08T14:53:52;12.80;99.90
10231;DHT22;62604;49.432;8.680;2024-03-08T14:56:21;12.70;99.90
10231;DHT22;62604;49.432;8.680;2024-03-08T14:58:48;12.60;99.90
10231;DHT22;62604;49.432;8.680;2024-03-08T15:01:17;12.50;99.90
10231;DHT22;62604;49.432;8.680;2024-03-08T15:03:47;12.50;99.90
10231;DHT22;62604;49.432;8.680;2024-03-08T15:06:16;12.50;99.90
10231;DHT22;62604;49.432;8.680;2024-03-08T15:08:47;12.40;99.90
10231;DHT22;62604;49.432;8.680;2024-03-08T15:11:14;12.40;99.90
10231;DHT22;62604;49.432;8.680;2024-03-08T15:13:48;12.50;99.90
10231;DHT22;62604;49.432;8.680;2024-03-08T15:16:18;12.60;99.90
10231;DHT22;62604;49.432;8.680;2024-03-08T15:18:49;12.70;99.90
10231;DHT22;62604;49.432;8.680;2024-03-08T15:21:17;12.70;99.90
10231;DHT22;62604;49.432;8.680;2024-03-08T15:23:44;12.80;99.90
10231;DHT22;62604;49.432;8.680;2024-03-08T15:26:15;12.80;99.90
10231;DHT22;62604;49.432;8.680;2024-03-08T15:28:42;12.80;99.90
10231;DHT22;62604;49.432;8.680;2024-03-08T15:31:12;13.00;99.90
10231;DHT22;62604;49.432;8.680;2024-03-08T15:33:40;13.20;99.90
10231;DHT22;62604;49.432;8.680;2024-03-08T15:36:10;13.50;99.90
10231;DHT22;62604;49.432;8.680;2024-03-08T15:38:39;13.70;99.90
10231;DHT22;62604;49.432;8.680;2024-03-08T15:41:07;13.80;99.90
10231;DHT22;62604;49.432;8.680;2024-03-08T15:43:36;14.00;99.90
10231;DHT22;62604;49.432;8.680;2024-03-08T15:46:03;14.00;99.90
10231;DHT22;62604;49.432;8.680;2024-03-08T15:48:32;13.90;99.90
10231;DHT22;62604;49.432;8.680;2024-03-08T15:51:01;13.70;99.90
10231;DHT22;62604;49.432;8.680;2024-03-08T15:53:30;13.60;99.90
10231;DHT22;62604;49.432;8.680;2024-03-08T15:55:58;13.40;99.90
10231;DHT22;62604;49.432;8.680;2024-03-08T15:58:25;13.30;99.90
10231;DHT22;62604;49.432;8.680;2024-03-08T16:00:52;13.20;99.90
10231;DHT22;62604;49.432;8.680;2024-03-08T16:03:21;13.00;99.90
10231;DHT22;62604;49.432;8.680;2024-03-08T16:05:50;12.80;99.90
10231;DHT22;62604;49.432;8.680;2024-03-08T16:08:18;12.70;99.90
10231;DHT22;62604;49.432;8.680;2024-03-08T16:10:47;12.60;99.90
10231;DHT22;62604;49.432;8.680;2024-03-08T16:13:19;12.50;99.90
10231;DHT22;62604;49.432;8.680;2024-03-08T16:15:48;12.40;99.90
10231;DHT22;62604;49.432;8.680;2024-03-08T16:18:16;12.20;99.90
10231;DHT22;62604;49.432;8.680;2024-03-08T16:20:46;12.10;99.90
10231;DHT22;62604;49.432;8.680;2024-03-08T16:23:15;12.10;99.90
10231;DHT22;62604;49.432;8.680;2024-03-08T16:25:42;12.00;99.90
10231;DHT22;62604;49.432;8.680;2024-03-08T16:28:10;11.90;99.90
10231;DHT22;62604;49.432;8.680;2024-03-08T16:30:37;11.90;99.90
10231;DHT22;62604;49.432;8.680;2024-03-08T16:33:07;11.80;99.90
10231;DHT22;62604;49.432;8.680;2024-03-08T16:35:34;11.70;99.90
10231;DHT22;62604;49.432;8.680;2024-03-08T16:38:01;11.70;99.90
10231;DHT22;62604;49.432;8.680;2024-03-08T16:40:30;11.60;99.90
10231;DHT22;62604;49.432;8.680;2024-03-08T16:42:57;11.50;99.90
10231;DHT22;62604;49.432;8.680;2024-03-08T16:45:24;11.50;99.90
10231;DHT22;62604;49.432;8.680;2024-03-08T16:47:52;11.40;99.90
10231;DHT22;62604;49.432;8.680;2024-03-08T16:50:20;11.30;99.90
10231;DHT22;62604;49.432;8.680;2024-03-08T16:52:49;11.20;99.90
10231;DHT22;62604;49.432;8.680;2024-03-08T16:55:17;11.20;99.90
10231;DHT22;62604;49.432;8.680;2024-03-08T16:57:47;11.10;99.90
10231;DHT22;62604;49.432;8.680;2024-03-08T17:00:16;11.00;99.90
10231;DHT22;62604;49.432;8.680;2024-03-08T17:02:47;11.00;99.90
10231;DHT22;62604;49.432;8.680;2024-03-08T17:05:15;10.90;99.90
10231;DHT22;62604;49.432;8.680;2024-03-08T17:07:43;10.90;99.90
10231;DHT22;62604;49.432;8.680;2024-03-08T17:10:12;10.80;99.90
10231;DHT22;62604;49.432;8.680;2024-03-08T17:12:43;10.70;99.90
10231;DHT22;62604;49.432;8.680;2024-03-08T17:15:12;10.70;99.90
10231;DHT22;62604;49.432;8.680;2024-03-08T17:17:39;10.60;99.90
10231;DHT22;62604;49.432;8.680;2024-03-08T17:20:08;10.50;99.90
10231;DHT22;62604;49.432;8.680;2024-03-08T17:22:40;10.50;99.90
10231;DHT22;62604;49.432;8.680;2024-03-08T17:25:07;10.40;99.90
10231;DHT22;62604;49.432;8.680;2024-03-08T17:27:39;10.40;99.90
10231;DHT22;62604;49.432;8.680;2024-03-08T17:30:07;10.30;99.90
10231;DHT22;62604;49.432;8.680;2024-03-08T17:32:46;10.30;99.90
10231;DHT22;62604;49.432;8.680;2024-03-08T17:35:15;10.20;99.90
10231;DHT22;62604;49.432;8.680;2024-03-08T17:37:45;10.20;99.90
10231;DHT22;62604;49.432;8.680;2024-03-08T17:40:13;10.20;99.90
10231;DHT22;62604;49.432;8.680;2024-03-08T17:42:44;10.10;99.90
10231;DHT22;62604;49.432;8.680;2024-03-08T17:45:11;10.10;99.90
10231;DHT22;62604;49.432;8.680;2024-03-08T17:47:42;10.10;99.90
10231;DHT22;62604;49.432;8.680;2024-03-08T17:50:12;10.10;99.90
10231;DHT22;62604;49.432;8.680;2024-03-08T17:52:42;10.20;99.90
10231;DHT22;62604;49.432;8.680;2024-03-08T17:55:10;10.10;99.90
10231;DHT22;62604;49.432;8.680;2024-03-08T17:57:40;10.10;99.90
10231;DHT22;62604;49.432;8.680;2024-03-08T18:00:12;10.10;99.90
10231;DHT22;62604;49.432;8.680;2024-03-08T18:02:45;10.10;99.90
10231;DHT22;62604;49.432;8.680;2024-03-08T18:05:17;10.20;99.90
10231;DHT22;62604;49.432;8.680;2024-03-08T18:07:45;10.10;99.90
10231;DHT22;62604;49.432;8.680;2024-03-08T18:10:12;10.10;99.90
10231;DHT22;62604;49.432;8.680;2024-03-08T18:12:45;10.10;99.90
10231;DHT22;62604;49.432;8.680;2024-03-08T18:15:14;10.10;99.90
10231;DHT22;62604;49.432;8.680;2024-03-08T18:17:47;10.10;99.90
10231;DHT22;62604;49.432;8.680;2024-03-08T18:20:14;10.10;99.90
10231;DHT22;62604;49.432;8.680;2024-03-08T18:22:43;10.00;99.90
10231;DHT22;62604;49.432;8.680;2024-03-08T18:25:11;10.00;99.90
10231;DHT22;62604;49.432;8.680;2024-03-08T18:27:44;10.00;99.90
10231;DHT22;62604;49.432;8.680;2024-03-08T18:30:12;10.00;99.90
10231;DHT22;62604;49.432;8.680;2024-03-08T18:32:42;10.00;99.90
10231;DHT22;62604;49.432;8.680;2024-03-08T18:35:10;10.00;99.90
10231;DHT22;62604;49.432;8.680;2024-03-08T18:37:38;10.00;99.90
10231;DHT22;62604;49.432;8.680;2024-03-08T18:40:08;10.00;99.90
10231;DHT22;62604;49.432;8.680;2024-03-08T18:42:38;10.00;99.90
10231;DHT22;62604;49.432;8.680;2024-03-08T18:45:07;10.00;99.90
10231;DHT22;62604;49.432;8.680;2024-03-08T18:47:39;9.90;99.90
10231;DHT22;62604;49.432;8.680;2024-03-08T18:50:07;9.90;99.90
10231;DHT22;62604;49.432;8.680;2024-03-08T18:52:38;9.90;99.90
10231;DHT22;62604;49.432;8.680;2024-03-08T18:55:07;9.90;99.90
10231;DHT22;62604;49.432;8.680;2024-03-08T18:57:37;9.90;99.90
10231;DHT22;62604;49.432;8.680;2024-03-08T19:00:10;9.90;99.90
10231;DHT22;62604;49.432;8.680;2024-03-08T19:02:40;9.90;99.90
10231;DHT22;62604;49.432;8.680;2024-03-08T19:05:08;9.90;99.90
10231;DHT22;62604;49.432;8.680;2024-03-08T19:07:42;9.80;99.90
10231;DHT22;62604;49.432;8.680;2024-03-08T19:10:11;9.80;99.90
10231;DHT22;62604;49.432;8.680;2024-03-08T19:12:39;9.70;99.90
10231;DHT22;62604;49.432;8.680;2024-03-08T19:15:09;9.80;99.90
10231;DHT22;62604;49.432;8.680;2024-03-08T19:17:36;9.70;99.90
10231;DHT22;62604;49.432;8.680;2024-03-08T19:20:05;9.70;99.90
10231;DHT22;62604;49.432;8.680;2024-03-08T19:22:39;9.60;99.90
10231;DHT22;62604;49.432;8.680;2024-03-08T19:25:07;9.60;99.90
10231;DHT22;62604;49.432;8.680;2024-03-08T19:27:37;9.50;99.90
10231;DHT22;62604;49.432;8.680;2024-03-08T19:30:05;9.50;99.90
10231;DHT22;62604;49.432;8.680;2024-03-08T19:32:33;9.50;99.90
10231;DHT22;62604;49.432;8.680;2024-03-08T19:35:00;9.50;99.90
10231;DHT22;62604;49.432;8.680;2024-03-08T19:37:35;9.50;99.90
10231;DHT22;62604;49.432;8.680;2024-03-08T19:40:06;9.50;99.90
10231;DHT22;62604;49.432;8.680;2024-03-08T19:42:40;9.50;99.90
10231;DHT22;62604;49.432;8.680;2024-03-08T19:45:11;9.50;99.90
10231;DHT22;62604;49.432;8.680;2024-03-08T19:47:38;9.50;99.90
10231;DHT22;62604;49.432;8.680;2024-03-08T19:50:09;9.50;99.90
10231;DHT22;62604;49.432;8.680;2024-03-08T19:52:37;9.40;99.90
10231;DHT22;62604;49.432;8.680;2024-03-08T19:55:04;9.40;99.90
10231;DHT22;62604;49.432;8.680;2024-03-08T19:57:32;9.40;99.90
10231;DHT22;62604;49.432;8.680;2024-03-08T20:00:00;9.40;99.90
10231;DHT22;62604;49.432;8.680;2024-03-08T20:02:29;9.40;99.90
10231;DHT22;62604;49.432;8.680;2024-03-08T20:04:56;9.40;99.90
10231;DHT22;62604;49.432;8.680;2024-03-08T20:07:27;9.30;99.90
10231;DHT22;62604;49.432;8.680;2024-03-08T20:09:54;9.30;99.90
10231;DHT22;62604;49.432;8.680;2024-03-08T20:12:21;9.30;99.90
10231;DHT22;62604;49.432;8.680;2024-03-08T20:14:49;9.30;99.90
10231;DHT22;62604;49.432;8.680;2024-03-08T20:17:17;9.50;99.90
10231;DHT22;62604;49.432;8.680;2024-03-08T20:19:44;9.30;99.90
10231;DHT22;62604;49.432;8.680;2024-03-08T20:22:11;9.30;99.90
10231;DHT22;62604;49.432;8.680;2024-03-08T20:24:38;9.30;99.90
10231;DHT22;62604;49.432;8.680;2024-03-08T20:27:06;9.30;99.90
10231;DHT22;62604;49.432;8.680;2024-03-08T20:29:34;9.20;99.90
10231;DHT22;62604;49.432;8.680;2024-03-08T20:32:02;9.20;99.90
10231;DHT22;62604;49.432;8.680;2024-03-08T20:34:31;9.20;99.90
10231;DHT22;62604;49.432;8.680;2024-03-08T20:36:59;9.20;99.90
10231;DHT22;62604;49.432;8.680;2024-03-08T20:39:26;9.20;99.90
10231;DHT22;62604;49.432;8.680;2024-03-08T20:41:55;9.20;99.90
10231;DHT22;62604;49.432;8.680;2024-03-08T20:44:22;9.10;99.90
10231;DHT22;62604;49.432;8.680;2024-03-08T20:46:50;9.10;99.90
10231;DHT22;62604;49.432;8.680;2024-03-08T20:49:17;9.10;99.90
10231;DHT22;62604;49.432;8.680;2024-03-08T20:51:47;9.10;99.90
10231;DHT22;62604;49.432;8.680;2024-03-08T20:54:14;9.00;99.90
10231;DHT22;62604;49.432;8.680;2024-03-08T20:56:41;9.00;99.90
10231;DHT22;62604;49.432;8.680;2024-03-08T20:59:10;9.00;99.90
10231;DHT22;62604;49.432;8.680;2024-03-08T21:01:37;8.90;99.90
10231;DHT22;62604;49.432;8.680;2024-03-08T21:04:06;8.90;99.90
10231;DHT22;62604;49.432;8.680;2024-03-08T21:06:38;8.80;99.90
10231;DHT22;62604;49.432;8.680;2024-03-08T21:09:10;8.80;99.90
10231;DHT22;62604;49.432;8.680;2024-03-08T21:11:38;8.80;99.90
10231;DHT22;62604;49.432;8.680;2024-03-08T21:14:06;8.80;99.90
10231;DHT22;62604;49.432;8.680;2024-03-08T21:16:36;8.80;99.90
10231;DHT22;62604;49.432;8.680;2024-03-08T21:19:03;8.80;99.90
10231;DHT22;62604;49.432;8.680;2024-03-08T21:21:31;8.80;99.90
10231;DHT22;62604;49.432;8.680;2024-03-08T21:23:59;8.70;99.90
10231;DHT22;62604;49.432;8.680;2024-03-08T21:26:27;8.70;99.90
10231;DHT22;62604;49.432;8.680;2024-03-08T21:28:55;8.70;99.90
10231;DHT22;62604;49.432;8.680;2024-03-08T21:31:24;8.70;99.90
10231;DHT22;62604;49.432;8.680;2024-03-08T21:33:51;8.70;99.90
10231;DHT22;62604;49.432;8.680;2024-03-08T21:36:19;8.60;99.90
10231;DHT22;62604;49.432;8.680;2024-03-08T21:38:46;8.70;99.90
10231;DHT22;62604;49.432;8.680;2024-03-08T21:41:13;8.60;99.90
10231;DHT22;62604;49.432;8.680;2024-03-08T21:43:42;8.60;99.90
10231;DHT22;62604;49.432;8.680;2024-03-08T21:46:09;8.60;99.90
10231;DHT22;62604;49.432;8.680;2024-03-08T21:48:37;8.60;99.90
10231;DHT22;62604;49.432;8.680;2024-03-08T21:51:05;8.60;99.90
10231;DHT22;62604;49.432;8.680;2024-03-08T21:53:32;8.60;99.90
10231;DHT22;62604;49.432;8.680;2024-03-08T21:56:03;8.60;99.90
10231;DHT22;62604;49.432;8.680;2024-03-08T21:58:30;8.60;99.90
10231;DHT22;62604;49.432;8.680;2024-03-08T22:00:59;8.50;99.90
10231;DHT22;62604;49.432;8.680;2024-03-08T22:03:26;8.50;99.90
10231;DHT22;62604;49.432;8.680;2024-03-08T22:05:56;8.50;99.90
10231;DHT22;62604;49.432;8.680;2024-03-08T22:08:23;8.40;99.90
10231;DHT22;62604;49.432;8.680;2024-03-08T22:10:51;8.40;99.90
10231;DHT22;62604;49.432;8.680;2024-03-08T22:13:21;8.40;99.90
10231;DHT22;62604;49.432;8.680;2024-03-08T22:15:48;8.40;99.90
10231;DHT22;62604;49.432;8.680;2024-03-08T22:18:19;8.30;99.90
10231;DHT22;62604;49.432;8.680;2024-03-08T22:20:47;8.30;99.90
10231;DHT22;62604;49.432;8.680;2024-03-08T22:23:16;8.30;99.90
10231;DHT22;62604;49.432;8.680;2024-03-08T22:25:49;8.30;99.90
10231;DHT22;62604;49.432;8.680;2024-03-08T22:28:16;8.30;99.90
10231;DHT22;62604;49.432;8.680;2024-03-08T22:30:49;8.30;99.90
10231;DHT22;62604;49.432;8.680;2024-03-08T22:33:18;8.20;99.90
10231;DHT22;62604;49.432;8.680;2024-03-08T22:35:45;8.30;99.90
10231;DHT22;62604;49.432;8.680;2024-03-08T22:38:12;8.30;99.90
10231;DHT22;62604;49.432;8.680;2024-03-08T22:40:39;8.30;99.90
10231;DHT22;62604;49.432;8.680;2024-03-08T22:43:06;8.30;99.90
10231;DHT22;62604;49.432;8.680;2024-03-08T22:45:33;8.30;99.90
10231;DHT22;62604;49.432;8.680;2024-03-08T22:48:00;8.20;99.90
10231;DHT22;62604;49.432;8.680;2024-03-08T22:50:33;8.20;99.90
10231;DHT22;62604;49.432;8.680;2024-03-08T22:53:00;8.20;99.90